sensor_id;sensor_type;location;lat;lon;timestamp;P1;durP1;ratioP1;P2;durP2;ratioP2
19867;SDS011;10096;51.112;6.776;2023-04-23T00:01:23;22.83;;;20.42;;
19867;SDS011;10096;51.112;6.776;2023-04-23T00:03:53;22.42;;;19.58;;
19867;SDS011;10096;51.112;6.776;2023-04-23T00:06:22;24.10;;;19.40;;
19867;SDS011;10096;51.112;6.776;2023-04-23T00:08:52;23.00;;;19.65;;
19867;SDS011;10096;51.112;6.776;2023-04-23T00:11:20;21.95;;;19.63;;
19867;SDS011;10096;51.112;6.776;2023-04-23T00:13:49;23.50;;;19.50;;
19867;SDS011;10096;51.112;6.776;2023-04-23T00:16:17;21.75;;;19.17;;
19867;SDS011;10096;51.112;6.776;2023-04-23T00:18:45;21.30;;;18.63;;
19867;SDS011;10096;51.112;6.776;2023-04-23T00:21:13;20.58;;;17.38;;
19867;SDS011;10096;51.112;6.776;2023-04-23T00:23:40;19.75;;;17.40;;
19867;SDS011;10096;51.112;6.776;2023-04-23T00:26:08;20.23;;;18.00;;
19867;SDS011;10096;51.112;6.776;2023-04-23T00:28:35;19.10;;;17.20;;
19867;SDS011;10096;51.112;6.776;2023-04-23T00:31:03;20.88;;;17.75;;
19867;SDS011;10096;51.112;6.776;2023-04-23T00:33:31;20.58;;;17.42;;
19867;SDS011;10096;51.112;6.776;2023-04-23T00:35:58;19.80;;;17.33;;
19867;SDS011;10096;51.112;6.776;2023-04-23T00:38:25;19.95;;;17.85;;
19867;SDS011;10096;51.112;6.776;2023-04-23T00:40:52;20.48;;;18.10;;
19867;SDS011;10096;51.112;6.776;2023-04-23T00:43:20;20.02;;;17.92;;
19867;SDS011;10096;51.112;6.776;2023-04-23T00:45:50;19.77;;;17.23;;
19867;SDS011;10096;51.112;6.776;2023-04-23T00:48:18;18.63;;;16.70;;
19867;SDS011;10096;51.112;6.776;2023-04-23T00:50:46;19.40;;;17.40;;
19867;SDS011;10096;51.112;6.776;2023-04-23T00:53:13;19.55;;;17.55;;
19867;SDS011;10096;51.112;6.776;2023-04-23T00:55:40;22.17;;;18.65;;
19867;SDS011;10096;51.112;6.776;2023-04-23T00:58:07;20.25;;;17.58;;
19867;SDS011;10096;51.112;6.776;2023-04-23T01:00:34;20.67;;;17.65;;
19867;SDS011;10096;51.112;6.776;2023-04-23T01:03:08;20.02;;;17.90;;
19867;SDS011;10096;51.112;6.776;2023-04-23T01:05:38;21.52;;;18.85;;
19867;SDS011;10096;51.112;6.776;2023-04-23T01:08:07;20.67;;;17.48;;
19867;SDS011;10096;51.112;6.776;2023-04-23T01:10:35;20.45;;;18.35;;
19867;SDS011;10096;51.112;6.776;2023-04-23T01:13:02;23.73;;;18.65;;
19867;SDS011;10096;51.112;6.776;2023-04-23T01:15:30;21.70;;;19.38;;
19867;SDS011;10096;51.112;6.776;2023-04-23T01:17:57;19.73;;;17.63;;
19867;SDS011;10096;51.112;6.776;2023-04-23T01:20:24;20.92;;;17.77;;
19867;SDS011;10096;51.112;6.776;2023-04-23T01:22:52;19.55;;;17.55;;
19867;SDS011;10096;51.112;6.776;2023-04-23T01:25:21;20.38;;;17.30;;
19867;SDS011;10096;51.112;6.776;2023-04-23T01:27:48;20.00;;;17.63;;
19867;SDS011;10096;51.112;6.776;2023-04-23T01:30:15;20.77;;;18.58;;
19867;SDS011;10096;51.112;6.776;2023-04-23T01:32:42;20.88;;;18.27;;
19867;SDS011;10096;51.112;6.776;2023-04-23T01:35:10;20.73;;;17.88;;
19867;SDS011;10096;51.112;6.776;2023-04-23T01:37:37;19.52;;;17.23;;
19867;SDS011;10096;51.112;6.776;2023-04-23T01:40:07;18.40;;;15.85;;
19867;SDS011;10096;51.112;6.776;2023-04-23T01:42:35;19.48;;;17.48;;
19867;SDS011;10096;51.112;6.776;2023-04-23T01:45:02;22.05;;;19.38;;
19867;SDS011;10096;51.112;6.776;2023-04-23T01:47:32;22.52;;;19.02;;
19867;SDS011;10096;51.112;6.776;2023-04-23T01:49:59;22.88;;;19.80;;
19867;SDS011;10096;51.112;6.776;2023-04-23T01:52:26;23.25;;;20.13;;
19867;SDS011;10096;51.112;6.776;2023-04-23T01:54:53;21.20;;;18.90;;
19867;SDS011;10096;51.112;6.776;2023-04-23T01:57:21;22.77;;;19.95;;
19867;SDS011;10096;51.112;6.776;2023-04-23T01:59:50;24.25;;;20.05;;
19867;SDS011;10096;51.112;6.776;2023-04-23T02:02:17;26.48;;;20.83;;
19867;SDS011;10096;51.112;6.776;2023-04-23T02:04:45;26.55;;;21.20;;
19867;SDS011;10096;51.112;6.776;2023-04-23T02:07:13;23.90;;;20.52;;
19867;SDS011;10096;51.112;6.776;2023-04-23T02:09:40;24.80;;;21.30;;
19867;SDS011;10096;51.112;6.776;2023-04-23T02:12:07;27.17;;;22.27;;
19867;SDS011;10096;51.112;6.776;2023-04-23T02:14:36;26.15;;;22.42;;
19867;SDS011;10096;51.112;6.776;2023-04-23T02:17:03;24.45;;;21.30;;
19867;SDS011;10096;51.112;6.776;2023-04-23T02:19:30;27.55;;;22.55;;
19867;SDS011;10096;51.112;6.776;2023-04-23T02:21:59;26.40;;;21.40;;
19867;SDS011;10096;51.112;6.776;2023-04-23T02:24:26;25.38;;;21.50;;
19867;SDS011;10096;51.112;6.776;2023-04-23T02:26:53;27.65;;;23.23;;
19867;SDS011;10096;51.112;6.776;2023-04-23T02:29:22;25.65;;;21.88;;
19867;SDS011;10096;51.112;6.776;2023-04-23T02:31:50;26.23;;;21.38;;
19867;SDS011;10096;51.112;6.776;2023-04-23T02:34:17;27.52;;;21.73;;
19867;SDS011;10096;51.112;6.776;2023-04-23T02:36:44;27.88;;;22.88;;
19867;SDS011;10096;51.112;6.776;2023-04-23T02:39:11;27.38;;;22.73;;
19867;SDS011;10096;51.112;6.776;2023-04-23T02:41:38;27.08;;;21.85;;
19867;SDS011;10096;51.112;6.776;2023-04-23T02:44:05;28.70;;;23.27;;
19867;SDS011;10096;51.112;6.776;2023-04-23T02:46:32;30.63;;;23.92;;
19867;SDS011;10096;51.112;6.776;2023-04-23T02:49:01;29.52;;;23.92;;
19867;SDS011;10096;51.112;6.776;2023-04-23T02:51:29;26.58;;;22.88;;
19867;SDS011;10096;51.112;6.776;2023-04-23T02:53:56;27.65;;;22.95;;
19867;SDS011;10096;51.112;6.776;2023-04-23T02:56:23;28.50;;;24.15;;
19867;SDS011;10096;51.112;6.776;2023-04-23T02:58:50;31.15;;;25.67;;
19867;SDS011;10096;51.112;6.776;2023-04-23T03:01:17;28.83;;;23.55;;
19867;SDS011;10096;51.112;6.776;2023-04-23T03:03:44;28.38;;;24.35;;
19867;SDS011;10096;51.112;6.776;2023-04-23T03:06:12;31.20;;;24.92;;
19867;SDS011;10096;51.112;6.776;2023-04-23T03:08:40;31.25;;;25.10;;
19867;SDS011;10096;51.112;6.776;2023-04-23T03:11:08;30.13;;;25.00;;
19867;SDS011;10096;51.112;6.776;2023-04-23T03:13:35;31.25;;;26.63;;
19867;SDS011;10096;51.112;6.776;2023-04-23T03:16:02;33.00;;;26.65;;
19867;SDS011;10096;51.112;6.776;2023-04-23T03:18:29;28.90;;;25.42;;
19867;SDS011;10096;51.112;6.776;2023-04-23T03:20:56;31.27;;;27.50;;
19867;SDS011;10096;51.112;6.776;2023-04-23T03:23:24;30.90;;;26.20;;
19867;SDS011;10096;51.112;6.776;2023-04-23T03:25:52;31.55;;;26.70;;
19867;SDS011;10096;51.112;6.776;2023-04-23T03:28:19;33.47;;;26.35;;
19867;SDS011;10096;51.112;6.776;2023-04-23T03:30:45;30.13;;;25.27;;
19867;SDS011;10096;51.112;6.776;2023-04-23T03:33:12;32.35;;;26.30;;
19867;SDS011;10096;51.112;6.776;2023-04-23T03:35:39;32.95;;;26.50;;
19867;SDS011;10096;51.112;6.776;2023-04-23T03:38:06;33.42;;;26.88;;
19867;SDS011;10096;51.112;6.776;2023-04-23T03:40:35;32.97;;;26.77;;
19867;SDS011;10096;51.112;6.776;2023-04-23T03:43:02;34.50;;;28.02;;
19867;SDS011;10096;51.112;6.776;2023-04-23T03:45:29;35.15;;;27.80;;
19867;SDS011;10096;51.112;6.776;2023-04-23T03:47:56;31.40;;;26.05;;
19867;SDS011;10096;51.112;6.776;2023-04-23T03:50:23;34.10;;;28.20;;
19867;SDS011;10096;51.112;6.776;2023-04-23T03:52:50;35.35;;;28.40;;
19867;SDS011;10096;51.112;6.776;2023-04-23T03:55:17;36.10;;;29.25;;
19867;SDS011;10096;51.112;6.776;2023-04-23T03:57:46;33.42;;;28.65;;
19867;SDS011;10096;51.112;6.776;2023-04-23T04:00:13;37.90;;;29.08;;
19867;SDS011;10096;51.112;6.776;2023-04-23T04:02:40;36.22;;;28.85;;
19867;SDS011;10096;51.112;6.776;2023-04-23T04:05:07;38.50;;;29.02;;
19867;SDS011;10096;51.112;6.776;2023-04-23T04:07:35;39.60;;;30.42;;
19867;SDS011;10096;51.112;6.776;2023-04-23T04:10:02;38.78;;;29.95;;
19867;SDS011;10096;51.112;6.776;2023-04-23T04:12:29;35.75;;;29.50;;
19867;SDS011;10096;51.112;6.776;2023-04-23T04:14:59;38.03;;;29.63;;
19867;SDS011;10096;51.112;6.776;2023-04-23T04:17:27;39.95;;;30.92;;
19867;SDS011;10096;51.112;6.776;2023-04-23T04:19:54;35.83;;;29.95;;
19867;SDS011;10096;51.112;6.776;2023-04-23T04:22:21;38.90;;;30.20;;
19867;SDS011;10096;51.112;6.776;2023-04-23T04:24:48;38.47;;;29.07;;
19867;SDS011;10096;51.112;6.776;2023-04-23T04:27:16;36.80;;;29.08;;
19867;SDS011;10096;51.112;6.776;2023-04-23T04:29:44;38.50;;;31.17;;
19867;SDS011;10096;51.112;6.776;2023-04-23T04:32:12;34.80;;;28.85;;
19867;SDS011;10096;51.112;6.776;2023-04-23T04:34:39;39.97;;;30.48;;
19867;SDS011;10096;51.112;6.776;2023-04-23T04:37:06;38.55;;;28.98;;
19867;SDS011;10096;51.112;6.776;2023-04-23T04:39:34;37.13;;;29.50;;
19867;SDS011;10096;51.112;6.776;2023-04-23T04:42:02;35.80;;;29.58;;
19867;SDS011;10096;51.112;6.776;2023-04-23T04:44:31;33.25;;;28.73;;
19867;SDS011;10096;51.112;6.776;2023-04-23T04:47:01;38.80;;;30.08;;
19867;SDS011;10096;51.112;6.776;2023-04-23T04:49:29;32.97;;;28.35;;
19867;SDS011;10096;51.112;6.776;2023-04-23T04:51:56;34.70;;;28.83;;
19867;SDS011;10096;51.112;6.776;2023-04-23T04:54:23;31.52;;;27.92;;
19867;SDS011;10096;51.112;6.776;2023-04-23T04:56:50;30.80;;;26.42;;
19867;SDS011;10096;51.112;6.776;2023-04-23T04:59:17;29.90;;;24.85;;
19867;SDS011;10096;51.112;6.776;2023-04-23T05:01:44;29.08;;;25.27;;
19867;SDS011;10096;51.112;6.776;2023-04-23T05:04:11;29.27;;;25.38;;
19867;SDS011;10096;51.112;6.776;2023-04-23T05:06:40;30.00;;;25.52;;
19867;SDS011;10096;51.112;6.776;2023-04-23T05:09:07;28.95;;;24.90;;
19867;SDS011;10096;51.112;6.776;2023-04-23T05:11:34;29.38;;;26.00;;
19867;SDS011;10096;51.112;6.776;2023-04-23T05:14:01;29.75;;;26.63;;
19867;SDS011;10096;51.112;6.776;2023-04-23T05:16:29;29.70;;;26.02;;
19867;SDS011;10096;51.112;6.776;2023-04-23T05:18:56;29.52;;;26.38;;
19867;SDS011;10096;51.112;6.776;2023-04-23T05:21:23;31.75;;;25.63;;
19867;SDS011;10096;51.112;6.776;2023-04-23T05:23:52;30.17;;;26.83;;
19867;SDS011;10096;51.112;6.776;2023-04-23T05:26:20;29.38;;;24.08;;
19867;SDS011;10096;51.112;6.776;2023-04-23T05:28:46;29.80;;;25.40;;
19867;SDS011;10096;51.112;6.776;2023-04-23T05:31:13;29.02;;;24.70;;
19867;SDS011;10096;51.112;6.776;2023-04-23T05:33:40;27.20;;;24.10;;
19867;SDS011;10096;51.112;6.776;2023-04-23T05:36:09;29.92;;;25.38;;
19867;SDS011;10096;51.112;6.776;2023-04-23T05:38:37;30.92;;;25.90;;
19867;SDS011;10096;51.112;6.776;2023-04-23T05:41:05;28.35;;;22.98;;
19867;SDS011;10096;51.112;6.776;2023-04-23T05:43:32;26.52;;;23.52;;
19867;SDS011;10096;51.112;6.776;2023-04-23T05:45:59;27.98;;;24.02;;
19867;SDS011;10096;51.112;6.776;2023-04-23T05:48:28;28.77;;;24.35;;
19867;SDS011;10096;51.112;6.776;2023-04-23T05:50:55;26.38;;;23.27;;
19867;SDS011;10096;51.112;6.776;2023-04-23T05:53:22;26.00;;;23.33;;
19867;SDS011;10096;51.112;6.776;2023-04-23T05:55:49;26.35;;;22.33;;
19867;SDS011;10096;51.112;6.776;2023-04-23T05:58:17;25.02;;;22.35;;
19867;SDS011;10096;51.112;6.776;2023-04-23T06:00:44;25.67;;;22.88;;
19867;SDS011;10096;51.112;6.776;2023-04-23T06:03:11;26.70;;;22.92;;
19867;SDS011;10096;51.112;6.776;2023-04-23T06:05:38;26.33;;;23.48;;
19867;SDS011;10096;51.112;6.776;2023-04-23T06:08:07;29.42;;;24.60;;
19867;SDS011;10096;51.112;6.776;2023-04-23T06:10:34;26.00;;;23.23;;
19867;SDS011;10096;51.112;6.776;2023-04-23T06:13:01;24.75;;;22.23;;
19867;SDS011;10096;51.112;6.776;2023-04-23T06:15:31;23.45;;;20.95;;
19867;SDS011;10096;51.112;6.776;2023-04-23T06:17:58;24.92;;;22.27;;
19867;SDS011;10096;51.112;6.776;2023-04-23T06:20:25;23.15;;;20.75;;
19867;SDS011;10096;51.112;6.776;2023-04-23T06:22:52;23.23;;;20.70;;
19867;SDS011;10096;51.112;6.776;2023-04-23T06:25:19;21.60;;;19.33;;
19867;SDS011;10096;51.112;6.776;2023-04-23T06:27:46;21.45;;;19.25;;
19867;SDS011;10096;51.112;6.776;2023-04-23T06:30:13;20.17;;;18.15;;
19867;SDS011;10096;51.112;6.776;2023-04-23T06:32:41;19.77;;;17.77;;
19867;SDS011;10096;51.112;6.776;2023-04-23T06:35:08;19.35;;;17.30;;
19867;SDS011;10096;51.112;6.776;2023-04-23T06:37:35;16.98;;;15.25;;
19867;SDS011;10096;51.112;6.776;2023-04-23T06:40:03;17.90;;;16.20;;
19867;SDS011;10096;51.112;6.776;2023-04-23T06:42:31;17.90;;;16.10;;
19867;SDS011;10096;51.112;6.776;2023-04-23T06:44:58;17.08;;;15.38;;
19867;SDS011;10096;51.112;6.776;2023-04-23T06:47:28;16.15;;;14.55;;
19867;SDS011;10096;51.112;6.776;2023-04-23T06:49:57;16.08;;;14.55;;
19867;SDS011;10096;51.112;6.776;2023-04-23T06:52:25;15.57;;;13.98;;
19867;SDS011;10096;51.112;6.776;2023-04-23T06:54:52;16.42;;;14.77;;
19867;SDS011;10096;51.112;6.776;2023-04-23T06:57:19;13.45;;;12.25;;
19867;SDS011;10096;51.112;6.776;2023-04-23T06:59:47;13.80;;;12.48;;
19867;SDS011;10096;51.112;6.776;2023-04-23T07:02:13;13.40;;;12.20;;
19867;SDS011;10096;51.112;6.776;2023-04-23T07:04:40;13.73;;;12.43;;
19867;SDS011;10096;51.112;6.776;2023-04-23T07:07:09;13.68;;;12.18;;
19867;SDS011;10096;51.112;6.776;2023-04-23T07:09:39;13.20;;;11.90;;
19867;SDS011;10096;51.112;6.776;2023-04-23T07:12:06;11.68;;;10.38;;
19867;SDS011;10096;51.112;6.776;2023-04-23T07:14:33;12.73;;;11.50;;
19867;SDS011;10096;51.112;6.776;2023-04-23T07:17:01;12.90;;;11.60;;
19867;SDS011;10096;51.112;6.776;2023-04-23T07:19:28;12.13;;;10.93;;
19867;SDS011;10096;51.112;6.776;2023-04-23T07:21:55;11.93;;;10.82;;
19867;SDS011;10096;51.112;6.776;2023-04-23T07:24:23;12.38;;;11.15;;
19867;SDS011;10096;51.112;6.776;2023-04-23T07:26:52;10.73;;;9.70;;
19867;SDS011;10096;51.112;6.776;2023-04-23T07:29:20;11.27;;;10.18;;
19867;SDS011;10096;51.112;6.776;2023-04-23T07:31:47;9.77;;;8.82;;
19867;SDS011;10096;51.112;6.776;2023-04-23T07:34:14;10.05;;;9.15;;
19867;SDS011;10096;51.112;6.776;2023-04-23T07:36:41;10.30;;;9.40;;
19867;SDS011;10096;51.112;6.776;2023-04-23T07:39:08;9.77;;;8.88;;
19867;SDS011;10096;51.112;6.776;2023-04-23T07:41:37;9.73;;;8.82;;
19867;SDS011;10096;51.112;6.776;2023-04-23T07:44:04;8.57;;;7.78;;
19867;SDS011;10096;51.112;6.776;2023-04-23T07:46:31;9.15;;;8.20;;
19867;SDS011;10096;51.112;6.776;2023-04-23T07:48:58;8.77;;;7.78;;
19867;SDS011;10096;51.112;6.776;2023-04-23T07:51:25;11.02;;;8.27;;
19867;SDS011;10096;51.112;6.776;2023-04-23T07:53:52;7.82;;;6.50;;
19867;SDS011;10096;51.112;6.776;2023-04-23T07:56:20;8.57;;;7.88;;
19867;SDS011;10096;51.112;6.776;2023-04-23T07:58:50;7.97;;;7.15;;
19867;SDS011;10096;51.112;6.776;2023-04-23T08:01:18;7.25;;;6.65;;
19867;SDS011;10096;51.112;6.776;2023-04-23T08:03:45;6.95;;;6.32;;
19867;SDS011;10096;51.112;6.776;2023-04-23T08:06:12;7.20;;;6.50;;
19867;SDS011;10096;51.112;6.776;2023-04-23T08:08:39;6.78;;;5.82;;
19867;SDS011;10096;51.112;6.776;2023-04-23T08:11:06;5.43;;;4.93;;
19867;SDS011;10096;51.112;6.776;2023-04-23T08:13:33;6.28;;;5.65;;
19867;SDS011;10096;51.112;6.776;2023-04-23T08:16:01;5.75;;;5.25;;
19867;SDS011;10096;51.112;6.776;2023-04-23T08:18:28;5.53;;;5.03;;
19867;SDS011;10096;51.112;6.776;2023-04-23T08:20:55;5.63;;;4.97;;
19867;SDS011;10096;51.112;6.776;2023-04-23T08:23:22;5.60;;;5.07;;
19867;SDS011;10096;51.112;6.776;2023-04-23T08:25:52;5.63;;;4.57;;
19867;SDS011;10096;51.112;6.776;2023-04-23T08:28:19;6.57;;;4.93;;
19867;SDS011;10096;51.112;6.776;2023-04-23T08:30:46;8.27;;;5.05;;
19867;SDS011;10096;51.112;6.776;2023-04-23T08:33:14;5.20;;;4.68;;
19867;SDS011;10096;51.112;6.776;2023-04-23T08:35:45;4.75;;;4.03;;
19867;SDS011;10096;51.112;6.776;2023-04-23T08:38:12;5.05;;;4.03;;
19867;SDS011;10096;51.112;6.776;2023-04-23T08:40:40;5.85;;;4.10;;
19867;SDS011;10096;51.112;6.776;2023-04-23T08:43:09;5.03;;;4.53;;
19867;SDS011;10096;51.112;6.776;2023-04-23T08:45:41;5.55;;;4.63;;
19867;SDS011;10096;51.112;6.776;2023-04-23T08:48:11;3.97;;;3.58;;
19867;SDS011;10096;51.112;6.776;2023-04-23T08:50:41;6.28;;;4.35;;
19867;SDS011;10096;51.112;6.776;2023-04-23T08:53:11;4.40;;;4.00;;
19867;SDS011;10096;51.112;6.776;2023-04-23T08:55:44;7.63;;;4.47;;
19867;SDS011;10096;51.112;6.776;2023-04-23T08:58:14;6.80;;;4.78;;
19867;SDS011;10096;51.112;6.776;2023-04-23T09:00:42;4.78;;;4.20;;
19867;SDS011;10096;51.112;6.776;2023-04-23T09:03:10;5.47;;;3.50;;
19867;SDS011;10096;51.112;6.776;2023-04-23T09:05:37;4.55;;;3.75;;
19867;SDS011;10096;51.112;6.776;2023-04-23T09:08:06;4.57;;;3.63;;
19867;SDS011;10096;51.112;6.776;2023-04-23T09:10:35;5.10;;;3.72;;
19867;SDS011;10096;51.112;6.776;2023-04-23T09:13:05;5.07;;;3.72;;
19867;SDS011;10096;51.112;6.776;2023-04-23T09:15:33;4.82;;;4.32;;
19867;SDS011;10096;51.112;6.776;2023-04-23T09:18:07;4.93;;;4.25;;
19867;SDS011;10096;51.112;6.776;2023-04-23T09:20:34;4.50;;;4.03;;
19867;SDS011;10096;51.112;6.776;2023-04-23T09:23:06;5.00;;;4.40;;
19867;SDS011;10096;51.112;6.776;2023-04-23T09:25:33;4.10;;;3.53;;
19867;SDS011;10096;51.112;6.776;2023-04-23T09:28:00;3.67;;;3.35;;
19867;SDS011;10096;51.112;6.776;2023-04-23T09:30:27;4.18;;;3.67;;
19867;SDS011;10096;51.112;6.776;2023-04-23T09:32:56;4.47;;;3.17;;
19867;SDS011;10096;51.112;6.776;2023-04-23T09:35:23;4.47;;;3.60;;
19867;SDS011;10096;51.112;6.776;2023-04-23T09:37:53;5.20;;;3.70;;
19867;SDS011;10096;51.112;6.776;2023-04-23T09:40:22;4.63;;;3.38;;
19867;SDS011;10096;51.112;6.776;2023-04-23T09:42:52;3.75;;;3.42;;
19867;SDS011;10096;51.112;6.776;2023-04-23T09:45:19;4.35;;;3.20;;
19867;SDS011;10096;51.112;6.776;2023-04-23T09:47:48;3.22;;;2.88;;
19867;SDS011;10096;51.112;6.776;2023-04-23T09:50:17;3.88;;;2.67;;
19867;SDS011;10096;51.112;6.776;2023-04-23T09:52:44;5.13;;;2.67;;
19867;SDS011;10096;51.112;6.776;2023-04-23T09:55:27;2.72;;;2.50;;
19867;SDS011;10096;51.112;6.776;2023-04-23T09:57:57;4.35;;;2.47;;
19867;SDS011;10096;51.112;6.776;2023-04-23T10:00:24;4.72;;;2.78;;
19867;SDS011;10096;51.112;6.776;2023-04-23T10:02:54;3.03;;;2.72;;
19867;SDS011;10096;51.112;6.776;2023-04-23T10:05:21;4.32;;;2.72;;
19867;SDS011;10096;51.112;6.776;2023-04-23T10:07:48;3.05;;;2.47;;
19867;SDS011;10096;51.112;6.776;2023-04-23T10:10:16;2.92;;;2.42;;
19867;SDS011;10096;51.112;6.776;2023-04-23T10:12:45;3.58;;;2.30;;
19867;SDS011;10096;51.112;6.776;2023-04-23T10:15:12;3.10;;;2.15;;
19867;SDS011;10096;51.112;6.776;2023-04-23T10:17:40;3.78;;;2.80;;
19867;SDS011;10096;51.112;6.776;2023-04-23T10:20:07;3.42;;;3.05;;
19867;SDS011;10096;51.112;6.776;2023-04-23T10:22:37;3.05;;;2.17;;
19867;SDS011;10096;51.112;6.776;2023-04-23T10:25:06;4.97;;;2.28;;
19867;SDS011;10096;51.112;6.776;2023-04-23T10:27:36;2.40;;;2.00;;
19867;SDS011;10096;51.112;6.776;2023-04-23T10:30:07;3.47;;;2.70;;
19867;SDS011;10096;51.112;6.776;2023-04-23T10:32:35;3.42;;;2.90;;
19867;SDS011;10096;51.112;6.776;2023-04-23T10:35:07;4.28;;;2.78;;
19867;SDS011;10096;51.112;6.776;2023-04-23T10:37:35;3.78;;;2.63;;
19867;SDS011;10096;51.112;6.776;2023-04-23T10:40:07;4.32;;;2.50;;
19867;SDS011;10096;51.112;6.776;2023-04-23T10:42:37;3.03;;;2.15;;
19867;SDS011;10096;51.112;6.776;2023-04-23T10:45:13;1.90;;;1.60;;
19867;SDS011;10096;51.112;6.776;2023-04-23T10:47:55;2.20;;;2.00;;
19867;SDS011;10096;51.112;6.776;2023-04-23T10:50:25;2.78;;;2.00;;
19867;SDS011;10096;51.112;6.776;2023-04-23T10:52:53;5.05;;;2.85;;
19867;SDS011;10096;51.112;6.776;2023-04-23T10:55:21;4.07;;;2.63;;
19867;SDS011;10096;51.112;6.776;2023-04-23T10:57:59;3.25;;;2.22;;
19867;SDS011;10096;51.112;6.776;2023-04-23T11:00:29;2.28;;;2.08;;
19867;SDS011;10096;51.112;6.776;2023-04-23T11:03:28;4.50;;;2.00;;
19867;SDS011;10096;51.112;6.776;2023-04-23T11:05:59;3.53;;;2.65;;
19867;SDS011;10096;51.112;6.776;2023-04-23T11:08:28;4.03;;;2.30;;
19867;SDS011;10096;51.112;6.776;2023-04-23T11:10:57;3.85;;;2.50;;
19867;SDS011;10096;51.112;6.776;2023-04-23T11:13:25;3.53;;;2.00;;
19867;SDS011;10096;51.112;6.776;2023-04-23T11:16:13;2.80;;;2.35;;
19867;SDS011;10096;51.112;6.776;2023-04-23T11:18:58;2.63;;;1.73;;
19867;SDS011;10096;51.112;6.776;2023-04-23T11:24:27;2.40;;;2.20;;
19867;SDS011;10096;51.112;6.776;2023-04-23T11:26:56;4.13;;;2.03;;
19867;SDS011;10096;51.112;6.776;2023-04-23T11:29:25;2.70;;;2.08;;
19867;SDS011;10096;51.112;6.776;2023-04-23T11:31:55;4.82;;;2.80;;
19867;SDS011;10096;51.112;6.776;2023-04-23T11:34:22;2.42;;;2.22;;
19867;SDS011;10096;51.112;6.776;2023-04-23T11:36:51;3.50;;;2.20;;
19867;SDS011;10096;51.112;6.776;2023-04-23T11:39:19;2.65;;;2.20;;
19867;SDS011;10096;51.112;6.776;2023-04-23T11:41:48;3.17;;;2.40;;
19867;SDS011;10096;51.112;6.776;2023-04-23T11:44:16;3.22;;;1.90;;
19867;SDS011;10096;51.112;6.776;2023-04-23T11:46:44;3.42;;;2.45;;
19867;SDS011;10096;51.112;6.776;2023-04-23T11:49:13;3.60;;;1.90;;
19867;SDS011;10096;51.112;6.776;2023-04-23T11:51:41;3.35;;;2.10;;
19867;SDS011;10096;51.112;6.776;2023-04-23T11:54:09;3.97;;;2.17;;
19867;SDS011;10096;51.112;6.776;2023-04-23T11:56:37;2.83;;;1.60;;
19867;SDS011;10096;51.112;6.776;2023-04-23T11:59:05;2.88;;;1.80;;
19867;SDS011;10096;51.112;6.776;2023-04-23T12:01:39;4.45;;;2.35;;
19867;SDS011;10096;51.112;6.776;2023-04-23T12:04:10;6.03;;;3.88;;
19867;SDS011;10096;51.112;6.776;2023-04-23T12:06:51;4.43;;;3.35;;
19867;SDS011;10096;51.112;6.776;2023-04-23T12:09:20;2.92;;;1.88;;
19867;SDS011;10096;51.112;6.776;2023-04-23T12:11:49;2.75;;;2.05;;
19867;SDS011;10096;51.112;6.776;2023-04-23T12:14:16;3.67;;;1.98;;
19867;SDS011;10096;51.112;6.776;2023-04-23T12:16:45;4.82;;;2.80;;
19867;SDS011;10096;51.112;6.776;2023-04-23T12:19:18;2.80;;;1.98;;
19867;SDS011;10096;51.112;6.776;2023-04-23T12:21:47;4.32;;;1.98;;
19867;SDS011;10096;51.112;6.776;2023-04-23T12:24:15;2.67;;;1.70;;
19867;SDS011;10096;51.112;6.776;2023-04-23T12:26:43;2.78;;;2.08;;
19867;SDS011;10096;51.112;6.776;2023-04-23T12:29:11;1.98;;;1.75;;
19867;SDS011;10096;51.112;6.776;2023-04-23T12:31:39;2.42;;;1.80;;
19867;SDS011;10096;51.112;6.776;2023-04-23T12:34:08;2.75;;;1.80;;
19867;SDS011;10096;51.112;6.776;2023-04-23T12:36:37;1.85;;;1.75;;
19867;SDS011;10096;51.112;6.776;2023-04-23T12:39:24;1.80;;;1.70;;
19867;SDS011;10096;51.112;6.776;2023-04-23T12:41:53;2.28;;;2.10;;
19867;SDS011;10096;51.112;6.776;2023-04-23T12:44:21;2.88;;;2.58;;
19867;SDS011;10096;51.112;6.776;2023-04-23T12:46:53;2.95;;;2.10;;
19867;SDS011;10096;51.112;6.776;2023-04-23T12:49:20;4.07;;;3.42;;
19867;SDS011;10096;51.112;6.776;2023-04-23T12:51:49;4.00;;;2.50;;
19867;SDS011;10096;51.112;6.776;2023-04-23T12:54:16;2.75;;;2.08;;
19867;SDS011;10096;51.112;6.776;2023-04-23T12:56:43;2.35;;;2.15;;
19867;SDS011;10096;51.112;6.776;2023-04-23T12:59:11;4.25;;;2.35;;
19867;SDS011;10096;51.112;6.776;2023-04-23T13:01:37;3.67;;;2.13;;
19867;SDS011;10096;51.112;6.776;2023-04-23T13:04:04;2.55;;;1.60;;
19867;SDS011;10096;51.112;6.776;2023-04-23T13:06:31;2.88;;;2.20;;
19867;SDS011;10096;51.112;6.776;2023-04-23T13:09:00;3.03;;;1.83;;
19867;SDS011;10096;51.112;6.776;2023-04-23T13:11:29;3.45;;;2.03;;
19867;SDS011;10096;51.112;6.776;2023-04-23T13:13:56;2.67;;;2.20;;
19867;SDS011;10096;51.112;6.776;2023-04-23T13:16:23;2.33;;;2.10;;
19867;SDS011;10096;51.112;6.776;2023-04-23T13:18:50;3.88;;;2.25;;
19867;SDS011;10096;51.112;6.776;2023-04-23T13:21:18;2.85;;;2.40;;
19867;SDS011;10096;51.112;6.776;2023-04-23T13:23:44;2.40;;;2.17;;
19867;SDS011;10096;51.112;6.776;2023-04-23T13:26:13;3.28;;;1.92;;
19867;SDS011;10096;51.112;6.776;2023-04-23T13:28:40;4.70;;;2.28;;
19867;SDS011;10096;51.112;6.776;2023-04-23T13:31:07;3.10;;;2.03;;
19867;SDS011;10096;51.112;6.776;2023-04-23T13:33:36;4.15;;;2.83;;
19867;SDS011;10096;51.112;6.776;2023-04-23T13:36:03;5.88;;;2.20;;
19867;SDS011;10096;51.112;6.776;2023-04-23T13:38:31;4.00;;;2.00;;
19867;SDS011;10096;51.112;6.776;2023-04-23T13:40:58;3.30;;;1.73;;
19867;SDS011;10096;51.112;6.776;2023-04-23T13:43:27;4.18;;;2.10;;
19867;SDS011;10096;51.112;6.776;2023-04-23T13:45:54;2.20;;;2.00;;
19867;SDS011;10096;51.112;6.776;2023-04-23T13:48:21;3.55;;;2.03;;
19867;SDS011;10096;51.112;6.776;2023-04-23T13:50:52;3.60;;;2.33;;
19867;SDS011;10096;51.112;6.776;2023-04-23T13:53:20;2.60;;;1.70;;
19867;SDS011;10096;51.112;6.776;2023-04-23T13:55:47;3.90;;;2.33;;
19867;SDS011;10096;51.112;6.776;2023-04-23T13:58:14;3.40;;;2.17;;
19867;SDS011;10096;51.112;6.776;2023-04-23T14:00:42;3.90;;;2.05;;
19867;SDS011;10096;51.112;6.776;2023-04-23T14:03:09;2.13;;;1.85;;
19867;SDS011;10096;51.112;6.776;2023-04-23T14:05:36;2.40;;;2.20;;
19867;SDS011;10096;51.112;6.776;2023-04-23T14:08:04;2.75;;;2.13;;
19867;SDS011;10096;51.112;6.776;2023-04-23T14:10:31;3.25;;;2.00;;
19867;SDS011;10096;51.112;6.776;2023-04-23T14:12:59;1.88;;;1.77;;
19867;SDS011;10096;51.112;6.776;2023-04-23T14:15:26;4.03;;;2.20;;
19867;SDS011;10096;51.112;6.776;2023-04-23T14:17:54;3.13;;;2.42;;
19867;SDS011;10096;51.112;6.776;2023-04-23T14:20:21;2.92;;;2.03;;
19867;SDS011;10096;51.112;6.776;2023-04-23T14:22:49;2.40;;;1.83;;
19867;SDS011;10096;51.112;6.776;2023-04-23T14:25:23;3.10;;;2.00;;
19867;SDS011;10096;51.112;6.776;2023-04-23T14:27:54;2.35;;;2.13;;
19867;SDS011;10096;51.112;6.776;2023-04-23T14:30:22;2.55;;;1.95;;
19867;SDS011;10096;51.112;6.776;2023-04-23T14:32:51;1.77;;;1.45;;
19867;SDS011;10096;51.112;6.776;2023-04-23T14:35:20;5.30;;;2.00;;
19867;SDS011;10096;51.112;6.776;2023-04-23T14:37:48;2.38;;;2.13;;
19867;SDS011;10096;51.112;6.776;2023-04-23T14:40:16;2.30;;;2.10;;
19867;SDS011;10096;51.112;6.776;2023-04-23T14:42:45;2.90;;;2.03;;